Terminal Aerodrome Forecast
Issued by NWS

Home | Current Version | Previous Version | Text Only | Print | Product List | Glossary On
Versions: 1 2 3 4 5 6 7 8 9 10 11 12 13 14 15 16 17 18 19 20 21 22 23 24 25 26 27 28 29 30 31 32 33 34 35 36 37 38 39
000
FTAK31 PANC 291121
TAFAVD
TAF
PAVD 291121Z 2912/3012 VRB02KT 4SM -SN SCT003 SCT015 OVC035
      TEMPO 2912/2916 2SM -SN SCT003 BKN015 OVC020
     FM291600 VRB03KT 2SM -SN BR SCT003 OVC012
     FM292000 VRB03KT 3SM -SNRA BR SCT003 OVC015
     FM292300 VRB03KT 3SM -RA BR SCT003 OVC015
     FM300600 VRB03KT P6SM VCSH SCT015 BKN022
      AMD LTD TO CLD VIS AND WIND=

USA.gov is the U.S. government's official web portal to all federal, state and local government web resources and services.